createdAt,value
2023-11-25T00:01:03.527Z,63.50
2023-11-25T00:03:31.515Z,63.50
2023-11-25T00:05:59.856Z,63.40
2023-11-25T00:08:28.406Z,63.50
2023-11-25T00:10:57.832Z,63.60
2023-11-25T00:13:26.705Z,63.60
2023-11-25T00:15:55.826Z,63.50
2023-11-25T00:18:23.717Z,63.50
2023-11-25T00:20:51.540Z,63.40
2023-11-25T00:23:19.734Z,63.30
2023-11-25T00:25:47.573Z,63.50
2023-11-25T00:28:17.934Z,63.50
2023-11-25T00:30:46.171Z,63.30
2023-11-25T00:33:14.405Z,63.40
2023-11-25T00:35:42.512Z,63.30
2023-11-25T00:38:10.423Z,63.50
2023-11-25T00:40:38.330Z,63.40
2023-11-25T00:43:07.107Z,63.50
2023-11-25T00:45:36.396Z,63.30
2023-11-25T00:48:04.626Z,63.50
2023-11-25T00:50:32.462Z,63.30
2023-11-25T00:53:00.375Z,63.50
2023-11-25T00:55:28.622Z,63.30
2023-11-25T00:57:56.449Z,63.50
2023-11-25T01:00:27.402Z,63.50
2023-11-25T01:02:57.544Z,63.50
2023-11-25T01:05:25.649Z,63.40
2023-11-25T01:07:54.091Z,63.40
2023-11-25T01:10:21.948Z,63.50
2023-11-25T01:12:49.783Z,63.50
2023-11-25T01:15:17.996Z,63.40
2023-11-25T01:17:45.831Z,63.40
2023-11-25T01:20:15.656Z,63.40
2023-11-25T01:22:43.687Z,63.40
2023-11-25T01:25:12.470Z,63.40
2023-11-25T01:27:40.311Z,63.40
2023-11-25T01:30:09.340Z,63.40
2023-11-25T01:32:37.119Z,63.40
2023-11-25T01:35:06.370Z,63.50
2023-11-25T01:37:35.713Z,63.50
2023-11-25T01:40:06.500Z,63.50
2023-11-25T01:42:35.569Z,63.50
2023-11-25T01:45:04.122Z,63.50
2023-11-25T01:47:33.203Z,63.50
2023-11-25T01:50:02.539Z,63.50
2023-11-25T01:52:32.536Z,63.50
2023-11-25T01:55:04.399Z,63.60
2023-11-25T01:57:35.406Z,63.60
2023-11-25T02:00:08.780Z,63.60
2023-11-25T02:02:41.377Z,63.60
2023-11-25T02:05:09.906Z,63.60
2023-11-25T02:07:38.298Z,63.70
2023-11-25T02:10:10.652Z,63.80
2023-11-25T02:12:40.479Z,63.70
2023-11-25T02:15:11.559Z,63.70
2023-11-25T02:17:39.888Z,63.70
2023-11-25T02:20:09.686Z,63.70
2023-11-25T02:22:37.984Z,63.70
2023-11-25T02:25:08.415Z,63.70
2023-11-25T02:27:36.662Z,63.70
2023-11-25T02:30:07.080Z,63.80
2023-11-25T02:32:35.535Z,63.80
2023-11-25T02:35:03.403Z,63.80
2023-11-25T02:37:31.643Z,63.80
2023-11-25T02:39:59.472Z,63.80
2023-11-25T02:42:28.772Z,63.80
2023-11-25T02:44:57.078Z,63.90
2023-11-25T02:47:25.461Z,63.80
2023-11-25T02:49:53.260Z,63.80
2023-11-25T02:52:21.764Z,63.90
2023-11-25T02:54:50.654Z,63.80
2023-11-25T02:57:20.239Z,63.90
2023-11-25T02:59:49.386Z,63.90
2023-11-25T03:02:17.385Z,63.90
2023-11-25T03:04:48.000Z,63.90
2023-11-25T03:07:16.500Z,63.90
2023-11-25T03:09:44.318Z,63.90
2023-11-25T03:12:12.622Z,64.00
2023-11-25T03:14:40.399Z,64.00
2023-11-25T03:17:10.017Z,63.90
2023-11-25T03:19:37.969Z,64.00
2023-11-25T03:22:05.798Z,64.00
2023-11-25T03:24:33.582Z,64.10
2023-11-25T03:27:01.503Z,64.10
2023-11-25T03:29:29.316Z,64.10
2023-11-25T03:31:59.419Z,64.20
2023-11-25T03:34:28.635Z,64.10
2023-11-25T03:36:56.442Z,64.20
2023-11-25T03:39:27.491Z,64.20
2023-11-25T03:41:55.271Z,64.20
2023-11-25T03:44:23.103Z,64.20
2023-11-25T03:46:51.272Z,64.30
2023-11-25T03:49:19.645Z,64.30
2023-11-25T03:51:48.990Z,64.30
2023-11-25T03:54:16.793Z,64.30
2023-11-25T03:56:44.617Z,64.40
2023-11-25T03:59:12.444Z,64.50
2023-11-25T04:01:42.811Z,64.50
2023-11-25T04:04:12.108Z,64.60
2023-11-25T04:06:40.601Z,64.60
2023-11-25T04:09:10.489Z,64.70
2023-11-25T04:11:38.288Z,64.70
2023-11-25T04:14:06.145Z,64.70
2023-11-25T04:16:34.017Z,64.70
2023-11-25T04:19:04.561Z,64.70
2023-11-25T04:21:32.457Z,64.80
2023-11-25T04:24:00.286Z,64.80
2023-11-25T04:26:29.362Z,64.80
2023-11-25T04:28:57.141Z,64.80
2023-11-25T04:31:24.962Z,64.80
2023-11-25T04:33:52.793Z,64.80
2023-11-25T04:36:20.587Z,64.80
2023-11-25T04:38:48.421Z,64.80
2023-11-25T04:41:16.227Z,64.80
2023-11-25T04:43:45.457Z,64.80
2023-11-25T04:46:13.275Z,64.80
2023-11-25T04:48:41.638Z,64.80
2023-11-25T04:51:10.274Z,64.90
2023-11-25T04:53:38.174Z,64.80
2023-11-25T04:56:06.695Z,64.90
2023-11-25T04:58:34.560Z,64.80
2023-11-25T05:01:03.804Z,64.80
2023-11-25T05:03:32.861Z,64.90
2023-11-25T05:06:03.254Z,64.80
2023-11-25T05:08:31.447Z,64.80
2023-11-25T05:10:59.274Z,64.80
2023-11-25T05:13:27.252Z,64.80
2023-11-25T05:15:55.136Z,64.80
2023-11-25T05:18:24.292Z,64.70
2023-11-25T05:20:52.336Z,64.70
2023-11-25T05:23:20.117Z,64.60
2023-11-25T05:25:47.951Z,64.60
2023-11-25T05:28:15.790Z,64.50
2023-11-25T05:30:43.724Z,64.50
2023-11-25T05:33:11.499Z,64.50
2023-11-25T05:35:40.636Z,64.40
2023-11-25T05:38:09.462Z,64.40
2023-11-25T05:40:37.939Z,64.30
2023-11-25T05:43:08.459Z,64.30
2023-11-25T05:45:39.919Z,64.30
2023-11-25T05:48:07.942Z,64.20
2023-11-25T05:50:35.756Z,64.10
2023-11-25T05:53:04.976Z,64.10
2023-11-25T05:55:32.879Z,64.10
2023-11-25T05:58:00.845Z,64.00
2023-11-25T06:00:30.500Z,64.00
2023-11-25T06:02:58.428Z,64.00
2023-11-25T06:05:26.329Z,63.90
2023-11-25T06:07:54.165Z,63.80
2023-11-25T06:10:24.100Z,63.90
2023-11-25T06:12:51.932Z,63.80
2023-11-25T06:15:21.056Z,63.70
2023-11-25T06:17:48.963Z,63.80
2023-11-25T06:20:17.021Z,63.70
2023-11-25T06:22:44.849Z,63.70
2023-11-25T06:25:12.763Z,63.70
2023-11-25T06:27:44.575Z,63.60
2023-11-25T06:30:14.974Z,63.60
2023-11-25T06:32:42.894Z,63.50
2023-11-25T06:35:13.150Z,64.30
2023-11-25T06:37:42.131Z,63.50
2023-11-25T06:40:13.844Z,63.50
2023-11-25T06:42:43.782Z,63.60
2023-11-25T06:45:11.802Z,63.60
2023-11-25T06:47:40.960Z,63.60
2023-11-25T06:50:09.661Z,63.60
2023-11-25T06:52:37.479Z,63.60
2023-11-25T06:55:06.473Z,63.70
2023-11-25T06:57:34.336Z,63.60
2023-11-25T07:00:03.539Z,63.60
2023-11-25T07:02:31.641Z,63.60
2023-11-25T07:04:59.452Z,63.60
2023-11-25T07:07:27.234Z,63.70
2023-11-25T07:09:55.079Z,63.70
2023-11-25T07:12:22.874Z,63.80
2023-11-25T07:14:50.978Z,63.70
2023-11-25T07:17:20.199Z,63.90
2023-11-25T07:19:48.024Z,64.00
2023-11-25T07:22:15.842Z,64.00
2023-11-25T07:24:45.818Z,64.00
2023-11-25T07:27:19.245Z,64.10
2023-11-25T07:29:47.614Z,64.10
2023-11-25T07:32:15.423Z,64.10
2023-11-25T07:34:44.637Z,64.20
2023-11-25T07:37:13.610Z,64.40
2023-11-25T07:39:41.441Z,64.70
2023-11-25T07:42:09.404Z,65.00
2023-11-25T07:44:37.238Z,65.30
2023-11-25T07:47:05.896Z,65.30
2023-11-25T07:49:34.490Z,65.40
2023-11-25T07:52:03.968Z,65.30
2023-11-25T07:54:32.819Z,65.40
2023-11-25T07:57:01.235Z,65.30
2023-11-25T07:59:30.435Z,65.20
2023-11-25T08:01:58.276Z,65.20
2023-11-25T08:04:26.580Z,65.10
2023-11-25T08:06:54.468Z,65.10
2023-11-25T08:09:24.546Z,64.90
2023-11-25T08:11:52.309Z,64.90
2023-11-25T08:14:20.117Z,65.60
2023-11-25T08:16:48.598Z,64.80
2023-11-25T08:19:17.556Z,64.70
2023-11-25T08:21:45.448Z,64.60
2023-11-25T08:24:13.244Z,64.50
2023-11-25T08:26:42.342Z,64.50
2023-11-25T08:29:10.182Z,64.50
2023-11-25T08:31:37.995Z,64.40
2023-11-25T08:34:08.171Z,64.40
2023-11-25T08:36:37.285Z,64.30
2023-11-25T08:39:05.203Z,64.20
2023-11-25T08:41:32.960Z,64.10
2023-11-25T08:44:02.134Z,64.10
2023-11-25T08:46:29.965Z,64.00
2023-11-25T08:48:57.749Z,64.00
2023-11-25T08:51:25.609Z,63.90
2023-11-25T08:53:55.133Z,63.80
2023-11-25T08:56:27.358Z,63.70
2023-11-25T08:59:06.172Z,63.70
2023-11-25T09:01:40.737Z,63.60
2023-11-25T09:04:08.881Z,63.50
2023-11-25T09:06:38.238Z,63.40
2023-11-25T09:09:08.268Z,63.40
2023-11-25T09:11:36.522Z,63.30
2023-11-25T09:14:05.347Z,63.30
2023-11-25T09:16:33.541Z,63.30
2023-11-25T09:19:03.850Z,63.30
2023-11-25T09:21:31.720Z,63.30
2023-11-25T09:23:59.796Z,63.50
2023-11-25T09:26:27.836Z,63.50
2023-11-25T09:28:56.171Z,63.50
2023-11-25T09:31:24.737Z,63.70
2023-11-25T09:33:52.733Z,63.70
2023-11-25T09:36:23.720Z,63.70
2023-11-25T09:38:51.641Z,63.70
2023-11-25T09:41:19.853Z,63.70
2023-11-25T09:43:48.244Z,63.80
2023-11-25T09:46:17.227Z,63.90
2023-11-25T09:48:46.850Z,64.00
2023-11-25T09:51:17.233Z,64.00
2023-11-25T09:53:48.230Z,64.10
2023-11-25T09:56:18.190Z,64.10
2023-11-25T09:58:46.326Z,64.10
2023-11-25T10:01:14.163Z,64.10
2023-11-25T10:03:43.939Z,64.10
2023-11-25T10:06:12.282Z,64.10
2023-11-25T10:08:40.724Z,64.10
2023-11-25T10:11:10.438Z,64.20
2023-11-25T10:13:40.551Z,64.10
2023-11-25T10:16:09.818Z,64.20
2023-11-25T10:18:38.465Z,64.90
2023-11-25T10:21:07.253Z,64.00
2023-11-25T10:23:36.758Z,63.90
2023-11-25T10:26:05.593Z,64.70
2023-11-25T10:28:37.220Z,63.90
2023-11-25T10:31:06.716Z,63.90
2023-11-25T10:33:35.539Z,63.90
2023-11-25T10:36:04.976Z,63.80
2023-11-25T10:38:33.197Z,63.80
2023-11-25T10:41:02.696Z,63.80
2023-11-25T10:43:32.143Z,63.80
2023-11-25T10:46:05.544Z,63.80
2023-11-25T10:48:33.710Z,63.80
2023-11-25T10:51:02.031Z,63.90
2023-11-25T10:53:31.174Z,64.00
2023-11-25T10:56:00.519Z,64.00
2023-11-25T10:58:30.717Z,64.00
2023-11-25T11:01:00.031Z,64.00
2023-11-25T11:03:50.566Z,64.00
2023-11-25T11:06:22.003Z,64.10
2023-11-25T11:08:53.084Z,64.10
2023-11-25T11:11:32.396Z,64.20
2023-11-25T11:14:08.185Z,64.40
2023-11-25T11:16:45.065Z,64.70
2023-11-25T11:19:18.032Z,64.80
2023-11-25T11:21:50.745Z,65.60
2023-11-25T11:24:23.341Z,64.80
2023-11-25T11:27:01.675Z,64.70
2023-11-25T11:29:37.763Z,64.80
2023-11-25T11:32:08.550Z,64.90
2023-11-25T11:34:40.161Z,65.10
2023-11-25T11:37:09.976Z,65.20
2023-11-25T11:39:43.270Z,65.30
2023-11-25T11:42:30.051Z,65.60
2023-11-25T11:45:06.877Z,65.70
2023-11-25T11:47:35.317Z,65.90
2023-11-25T11:50:09.518Z,66.50
2023-11-25T11:53:00.212Z,66.70
2023-11-25T11:55:39.860Z,66.80
2023-11-25T11:58:09.198Z,67.00
2023-11-25T12:00:47.284Z,68.20
2023-11-25T12:03:17.510Z,67.40
2023-11-25T12:05:47.207Z,67.20
2023-11-25T12:08:15.293Z,66.90
2023-11-25T12:10:43.304Z,66.70
2023-11-25T12:13:12.828Z,66.40
2023-11-25T12:15:40.952Z,66.30
2023-11-25T12:18:11.605Z,66.10
2023-11-25T12:20:40.599Z,66.00
2023-11-25T12:23:10.249Z,65.90
2023-11-25T12:25:39.062Z,65.90
2023-11-25T12:28:08.610Z,65.70
2023-11-25T12:30:37.926Z,65.60
2023-11-25T12:33:07.439Z,65.20
2023-11-25T12:35:36.156Z,64.40
2023-11-25T12:38:12.233Z,64.10
2023-11-25T12:40:46.553Z,63.70
2023-11-25T12:43:15.462Z,63.50
2023-11-25T12:45:46.391Z,63.50
2023-11-25T12:48:17.511Z,63.20
2023-11-25T12:51:03.085Z,63.20
2023-11-25T12:53:29.966Z,63.10
2023-11-25T12:56:00.226Z,62.90
2023-11-25T12:58:28.296Z,62.70
2023-11-25T13:00:58.563Z,62.60
2023-11-25T13:03:27.773Z,62.50
2023-11-25T13:06:00.338Z,62.30
2023-11-25T13:08:30.136Z,62.20
2023-11-25T13:11:00.971Z,62.20
2023-11-25T13:13:30.567Z,62.00
2023-11-25T13:15:59.052Z,61.90
2023-11-25T13:18:27.922Z,61.90
2023-11-25T13:20:57.401Z,61.80
2023-11-25T13:23:25.691Z,61.80
2023-11-25T13:25:54.069Z,61.70
2023-11-25T13:28:23.395Z,61.60
2023-11-25T13:30:52.161Z,61.50
2023-11-25T13:33:20.235Z,61.40
2023-11-25T13:35:48.320Z,61.40
2023-11-25T13:38:16.906Z,61.40
2023-11-25T13:40:45.211Z,61.40
2023-11-25T13:43:14.827Z,61.40
2023-11-25T13:45:43.941Z,61.40
2023-11-25T13:48:15.660Z,61.60
2023-11-25T13:50:43.930Z,61.60
2023-11-25T13:53:14.107Z,61.60
2023-11-25T13:55:45.821Z,61.60
2023-11-25T13:58:14.845Z,61.60
2023-11-25T14:00:44.163Z,61.80
2023-11-25T14:03:13.232Z,61.80
2023-11-25T14:05:43.477Z,61.90
2023-11-25T14:08:13.104Z,61.80
2023-11-25T14:10:43.806Z,61.80
2023-11-25T14:13:12.336Z,61.80
2023-11-25T14:15:40.270Z,61.90
2023-11-25T14:18:11.629Z,61.90
2023-11-25T14:20:39.685Z,61.90
2023-11-25T14:23:07.889Z,62.00
2023-11-25T14:25:36.124Z,62.00
2023-11-25T14:28:04.161Z,62.00
2023-11-25T14:30:34.466Z,62.10
2023-11-25T14:33:04.765Z,62.10
2023-11-25T14:35:34.631Z,62.10
2023-11-25T14:38:04.886Z,62.10
2023-11-25T14:40:36.669Z,62.20
2023-11-25T14:43:06.595Z,62.20
2023-11-25T14:45:35.505Z,62.20
2023-11-25T14:48:04.257Z,62.10
2023-11-25T14:50:32.469Z,62.10
2023-11-25T14:53:02.572Z,62.10
2023-11-25T14:55:30.394Z,62.10
2023-11-25T14:57:58.221Z,62.10
2023-11-25T15:00:29.356Z,62.10
2023-11-25T15:02:57.774Z,62.10
2023-11-25T15:05:25.651Z,62.10
2023-11-25T15:07:53.610Z,62.10
2023-11-25T15:10:26.161Z,62.10
2023-11-25T15:12:54.341Z,62.10
2023-11-25T15:15:22.124Z,62.10
2023-11-25T15:17:50.072Z,62.00
2023-11-25T15:20:18.152Z,62.10
2023-11-25T15:22:46.536Z,62.10
2023-11-25T15:25:14.494Z,62.10
2023-11-25T15:27:43.931Z,62.10
2023-11-25T15:30:13.554Z,62.10
2023-11-25T15:32:43.417Z,62.10
2023-11-25T15:35:11.778Z,62.20
2023-11-25T15:37:39.769Z,62.30
2023-11-25T15:40:09.526Z,63.20
2023-11-25T15:42:37.367Z,62.40
2023-11-25T15:45:07.527Z,62.40
2023-11-25T15:47:35.370Z,62.50
2023-11-25T15:50:04.915Z,62.60
2023-11-25T15:52:32.791Z,62.70
2023-11-25T15:55:00.634Z,62.80
2023-11-25T15:57:28.511Z,62.60
2023-11-25T15:59:56.291Z,62.60
2023-11-25T16:02:26.858Z,62.50
2023-11-25T16:04:54.850Z,62.50
2023-11-25T16:07:23.399Z,62.60
2023-11-25T16:09:51.205Z,62.60
2023-11-25T16:12:18.966Z,62.70
2023-11-25T16:14:46.717Z,62.70
2023-11-25T16:17:15.161Z,62.80
2023-11-25T16:19:44.625Z,62.90
2023-11-25T16:22:12.411Z,63.00
2023-11-25T16:24:40.183Z,63.00
2023-11-25T16:27:07.960Z,63.60
2023-11-25T16:29:36.065Z,63.30
2023-11-25T16:32:04.362Z,63.50
2023-11-25T16:34:32.243Z,63.70
2023-11-25T16:37:01.827Z,64.10
2023-11-25T16:39:29.549Z,64.30
2023-11-25T16:41:58.970Z,64.30
2023-11-25T16:44:26.798Z,64.30
2023-11-25T16:46:54.602Z,64.40
2023-11-25T16:49:22.426Z,64.60
2023-11-25T16:51:53.306Z,64.60
2023-11-25T16:54:22.394Z,64.60
2023-11-25T16:56:50.179Z,64.50
2023-11-25T16:59:18.740Z,64.50
2023-11-25T17:01:47.076Z,64.60
2023-11-25T17:04:15.750Z,64.60
2023-11-25T17:06:44.650Z,64.50
2023-11-25T17:09:12.554Z,64.50
2023-11-25T17:11:42.114Z,64.80
2023-11-25T17:14:09.950Z,64.80
2023-11-25T17:16:37.878Z,64.70
2023-11-25T17:19:06.881Z,64.70
2023-11-25T17:21:34.927Z,64.70
2023-11-25T17:24:04.810Z,64.90
2023-11-25T17:26:32.577Z,64.90
2023-11-25T17:29:01.836Z,65.10
2023-11-25T17:31:29.607Z,65.10
2023-11-25T17:33:57.362Z,65.40
2023-11-25T17:36:25.587Z,65.60
2023-11-25T17:38:53.479Z,65.80
2023-11-25T17:41:21.283Z,66.10
2023-11-25T17:43:49.111Z,66.30
2023-11-25T17:46:18.368Z,66.40
2023-11-25T17:48:46.152Z,66.70
2023-11-25T17:51:14.074Z,67.10
2023-11-25T17:53:42.007Z,67.10
2023-11-25T17:56:10.404Z,67.00
2023-11-25T17:58:38.328Z,67.00
2023-11-25T18:01:06.404Z,67.20
2023-11-25T18:03:35.552Z,67.20
2023-11-25T18:06:03.459Z,67.50
2023-11-25T18:08:31.263Z,67.50
2023-11-25T18:10:59.113Z,67.30
2023-11-25T18:13:27.325Z,67.20
2023-11-25T18:15:55.124Z,67.00
2023-11-25T18:18:23.032Z,66.80
2023-11-25T18:20:53.016Z,66.80
2023-11-25T18:23:20.838Z,66.70
2023-11-25T18:25:49.396Z,66.70
2023-11-25T18:28:18.524Z,66.70
2023-11-25T18:30:47.728Z,66.60
2023-11-25T18:33:16.964Z,66.50
2023-11-25T18:35:44.871Z,66.60
2023-11-25T18:38:14.564Z,66.60
2023-11-25T18:40:42.373Z,66.60
2023-11-25T18:43:10.187Z,66.50
2023-11-25T18:45:38.025Z,66.50
2023-11-25T18:48:07.647Z,66.50
2023-11-25T18:50:35.545Z,66.50
2023-11-25T18:53:03.330Z,66.50
2023-11-25T18:55:32.446Z,66.40
2023-11-25T18:58:00.285Z,66.40
2023-11-25T19:00:28.785Z,66.40
2023-11-25T19:02:56.699Z,66.50
2023-11-25T19:05:25.067Z,66.50
2023-11-25T19:07:52.878Z,66.60
2023-11-25T19:10:20.655Z,67.30
2023-11-25T19:12:49.761Z,66.40
2023-11-25T19:15:17.554Z,66.40
2023-11-25T19:17:45.449Z,66.50
2023-11-25T19:20:15.101Z,66.50
2023-11-25T19:22:43.082Z,66.50
2023-11-25T19:25:12.626Z,66.50
2023-11-25T19:27:40.482Z,66.40
2023-11-25T19:30:10.492Z,66.50
2023-11-25T19:32:38.402Z,66.40
2023-11-25T19:35:07.623Z,66.40
2023-11-25T19:37:35.429Z,66.40
2023-11-25T19:40:03.426Z,66.40
2023-11-25T19:42:31.191Z,66.30
2023-11-25T19:44:59.313Z,66.30
2023-11-25T19:47:28.498Z,66.30
2023-11-25T19:49:56.695Z,66.30
2023-11-25T19:52:24.449Z,66.20
2023-11-25T19:54:52.242Z,66.20
2023-11-25T19:57:20.200Z,66.10
2023-11-25T19:59:48.830Z,66.10
2023-11-25T20:02:16.906Z,66.20
2023-11-25T20:04:46.142Z,66.00
2023-11-25T20:07:14.653Z,66.00
2023-11-25T20:09:42.449Z,65.90
2023-11-25T20:12:11.209Z,65.90
2023-11-25T20:14:39.159Z,65.90
2023-11-25T20:17:07.086Z,65.80
2023-11-25T20:19:34.941Z,65.80
2023-11-25T20:22:06.745Z,65.80
2023-11-25T20:24:35.000Z,66.60
2023-11-25T20:27:02.989Z,65.70
2023-11-25T20:29:30.747Z,65.70
2023-11-25T20:31:58.562Z,65.70
2023-11-25T20:34:26.631Z,65.60
2023-11-25T20:36:54.400Z,65.70
2023-11-25T20:39:25.304Z,65.60
2023-11-25T20:41:53.449Z,65.60
2023-11-25T20:44:21.429Z,66.30
2023-11-25T20:46:49.285Z,65.40
2023-11-25T20:49:17.112Z,65.40
2023-11-25T20:51:44.886Z,65.40
2023-11-25T20:54:12.909Z,65.40
2023-11-25T20:56:42.121Z,65.50
2023-11-25T20:59:10.013Z,65.40
2023-11-25T21:01:37.938Z,65.40
2023-11-25T21:04:06.114Z,65.40
2023-11-25T21:06:35.268Z,65.40
2023-11-25T21:09:03.098Z,65.40
2023-11-25T21:11:30.972Z,65.40
2023-11-25T21:14:00.264Z,65.30
2023-11-25T21:16:28.440Z,65.30
2023-11-25T21:18:56.250Z,65.40
2023-11-25T21:21:24.008Z,65.40
2023-11-25T21:23:51.769Z,65.40
2023-11-25T21:26:20.111Z,65.40
2023-11-25T21:28:47.943Z,65.40
2023-11-25T21:31:17.076Z,65.40
2023-11-25T21:33:45.119Z,65.40
2023-11-25T21:36:12.909Z,65.40
2023-11-25T21:38:40.662Z,65.50
2023-11-25T21:41:10.756Z,65.50
2023-11-25T21:43:38.653Z,65.50
2023-11-25T21:46:08.836Z,65.50
2023-11-25T21:48:38.277Z,65.50
2023-11-25T21:51:08.709Z,65.60
2023-11-25T21:53:36.688Z,65.60
2023-11-25T21:56:05.680Z,65.60
2023-11-25T21:58:33.898Z,65.60
2023-11-25T22:01:02.594Z,65.60
2023-11-25T22:03:34.233Z,65.60
2023-11-25T22:06:04.881Z,65.70
2023-11-25T22:08:32.672Z,65.70
2023-11-25T22:11:00.563Z,65.70
2023-11-25T22:13:28.898Z,65.70
2023-11-25T22:15:56.685Z,65.70
2023-11-25T22:18:24.479Z,65.70
2023-11-25T22:20:52.259Z,65.70
2023-11-25T22:23:21.421Z,65.70
2023-11-25T22:26:04.694Z,65.70
2023-11-25T22:28:32.567Z,65.70
2023-11-25T22:31:01.229Z,65.70
2023-11-25T22:33:29.153Z,65.80
2023-11-25T22:35:59.018Z,65.70
2023-11-25T22:38:28.660Z,65.80
2023-11-25T22:40:57.505Z,65.80
2023-11-25T22:43:25.400Z,65.80
2023-11-25T22:45:53.310Z,65.80
2023-11-25T22:48:21.242Z,65.80
2023-11-25T22:50:49.686Z,65.80
2023-11-25T22:53:17.620Z,65.80
2023-11-25T22:55:46.856Z,65.80
2023-11-25T22:58:14.793Z,65.80
2023-11-25T23:00:50.509Z,65.80
2023-11-25T23:03:18.904Z,65.80
2023-11-25T23:05:46.819Z,65.90
2023-11-25T23:08:14.765Z,65.90
2023-11-25T23:10:43.158Z,65.90
2023-11-25T23:13:12.258Z,65.90
2023-11-25T23:15:40.282Z,65.90
2023-11-25T23:18:08.862Z,65.90
2023-11-25T23:20:37.178Z,66.70
2023-11-25T23:23:05.002Z,65.90
2023-11-25T23:25:32.830Z,65.90
2023-11-25T23:28:00.587Z,65.90
2023-11-25T23:30:29.697Z,65.90
2023-11-25T23:32:57.947Z,65.90
2023-11-25T23:35:25.828Z,65.90
2023-11-25T23:37:53.669Z,65.90
2023-11-25T23:40:22.002Z,65.90
2023-11-25T23:42:49.902Z,65.90
2023-11-25T23:45:17.899Z,65.90
2023-11-25T23:47:47.881Z,66.70
2023-11-25T23:50:15.751Z,65.90
2023-11-25T23:52:43.749Z,65.90
2023-11-25T23:55:11.618Z,65.90
2023-11-25T23:57:39.433Z,65.80
